createdAt,value
2023-02-28T00:02:33.148Z,5.80
2023-02-28T00:05:19.972Z,5.80
2023-02-28T00:08:05.519Z,5.90
2023-02-28T00:10:51.217Z,5.90
2023-02-28T00:13:40.821Z,6.00
2023-02-28T00:16:26.588Z,6.00
2023-02-28T00:19:14.379Z,6.10
2023-02-28T00:22:00.014Z,6.10
2023-02-28T00:24:45.687Z,6.10
2023-02-28T00:27:31.467Z,6.10
2023-02-28T00:30:18.578Z,6.10
2023-02-28T00:33:04.362Z,6.00
2023-02-28T00:35:50.157Z,6.00
2023-02-28T00:38:35.863Z,6.10
2023-02-28T00:41:21.335Z,6.00
2023-02-28T00:44:07.022Z,6.10
2023-02-28T00:46:52.775Z,6.00
2023-02-28T00:49:38.533Z,5.90
2023-02-28T00:52:24.230Z,5.90
2023-02-28T00:55:09.948Z,5.80
2023-02-28T00:57:55.457Z,5.80
2023-02-28T01:00:41.127Z,5.70
2023-02-28T01:03:27.157Z,5.60
2023-02-28T01:06:12.797Z,5.60
2023-02-28T01:08:58.821Z,5.60
2023-02-28T01:11:45.171Z,5.50
2023-02-28T01:14:30.747Z,5.50
2023-02-28T01:17:16.974Z,5.50
2023-02-28T01:20:02.240Z,5.60
2023-02-28T01:22:48.017Z,5.60
2023-02-28T01:25:35.289Z,5.60
2023-02-28T01:28:22.616Z,5.50
2023-02-28T01:31:10.246Z,5.50
2023-02-28T01:33:56.776Z,5.50
2023-02-28T01:36:42.333Z,5.50
2023-02-28T01:39:28.016Z,5.60
2023-02-28T01:42:13.891Z,5.50
2023-02-28T01:45:20.045Z,5.50
2023-02-28T01:48:08.955Z,5.40
2023-02-28T01:50:55.294Z,5.50
2023-02-28T01:53:47.053Z,5.40
2023-02-28T01:56:34.551Z,5.30
2023-02-28T01:59:25.777Z,5.30
2023-02-28T02:02:11.837Z,5.30
2023-02-28T02:05:02.644Z,5.30
2023-02-28T02:07:50.720Z,5.40
2023-02-28T02:10:42.161Z,5.50
2023-02-28T02:13:28.034Z,5.60
2023-02-28T02:16:32.180Z,5.60
2023-02-28T02:19:26.936Z,5.70
2023-02-28T02:22:16.124Z,5.60
2023-02-28T02:25:14.322Z,5.70
2023-02-28T02:28:06.179Z,5.70
2023-02-28T02:31:03.960Z,5.70
2023-02-28T02:34:08.547Z,5.70
2023-02-28T02:37:01.546Z,5.70
2023-02-28T02:39:53.187Z,5.60
2023-02-28T02:42:51.901Z,5.60
2023-02-28T02:46:07.071Z,5.60
2023-02-28T02:48:54.100Z,5.60
2023-02-28T02:51:39.884Z,5.60
2023-02-28T02:54:29.580Z,5.60
2023-02-28T02:57:22.188Z,5.60
2023-02-28T03:00:09.782Z,5.50
2023-02-28T03:02:56.929Z,5.40
2023-02-28T03:05:50.360Z,5.40
2023-02-28T03:08:36.992Z,5.40
2023-02-28T03:11:22.640Z,5.40
2023-02-28T03:14:11.215Z,5.40
2023-02-28T03:17:17.408Z,5.40
2023-02-28T03:20:12.548Z,5.40
2023-02-28T03:23:11.797Z,5.40
2023-02-28T03:26:06.686Z,5.40
2023-02-28T03:29:00.610Z,5.40
2023-02-28T03:31:50.525Z,5.40
2023-02-28T03:34:39.442Z,5.30
2023-02-28T03:37:26.342Z,5.30
2023-02-28T03:40:14.150Z,5.40
2023-02-28T03:43:10.636Z,5.30
2023-02-28T03:45:57.363Z,5.30
2023-02-28T03:48:45.724Z,5.30
2023-02-28T03:51:32.782Z,5.20
2023-02-28T03:54:25.160Z,5.20
2023-02-28T03:57:33.729Z,5.20
2023-02-28T04:00:21.081Z,5.20
2023-02-28T04:03:06.796Z,5.20
2023-02-28T04:05:54.009Z,5.10
2023-02-28T04:08:39.599Z,5.20
2023-02-28T04:11:35.853Z,5.20
2023-02-28T04:14:21.422Z,5.20
2023-02-28T04:17:07.359Z,5.30
2023-02-28T04:19:52.973Z,5.20
2023-02-28T04:22:38.823Z,5.40
2023-02-28T04:25:24.511Z,5.30
2023-02-28T04:28:10.787Z,5.20
2023-02-28T04:30:57.712Z,5.10
2023-02-28T04:33:43.445Z,5.10
2023-02-28T04:36:29.228Z,5.10
2023-02-28T04:39:14.967Z,5.10
2023-02-28T04:42:00.730Z,5.10
2023-02-28T04:44:46.635Z,5.10
2023-02-28T04:47:32.006Z,5.00
2023-02-28T04:50:17.643Z,5.10
2023-02-28T04:53:03.351Z,5.10
2023-02-28T04:55:48.586Z,5.20
2023-02-28T04:58:34.940Z,5.10
2023-02-28T05:01:20.896Z,5.10
2023-02-28T05:04:06.881Z,5.10
2023-02-28T05:06:52.456Z,4.80
2023-02-28T05:09:37.840Z,4.70
2023-02-28T05:12:23.585Z,4.60
2023-02-28T05:15:13.468Z,4.60
2023-02-28T05:17:59.067Z,4.60
2023-02-28T05:20:45.044Z,4.60
2023-02-28T05:23:30.514Z,4.60
2023-02-28T05:26:16.351Z,4.70
2023-02-28T05:29:02.285Z,4.80
2023-02-28T05:31:47.949Z,4.90
2023-02-28T05:34:33.390Z,4.90
2023-02-28T05:37:19.026Z,5.00
2023-02-28T05:40:11.297Z,5.10
2023-02-28T05:42:56.795Z,5.10
2023-02-28T05:45:42.526Z,5.20
2023-02-28T05:48:27.806Z,5.20
2023-02-28T05:51:13.286Z,5.20
2023-02-28T05:54:02.391Z,5.20
2023-02-28T05:56:47.931Z,5.20
2023-02-28T05:59:34.054Z,5.20
2023-02-28T06:02:19.833Z,5.20
2023-02-28T06:05:05.758Z,5.20
2023-02-28T06:07:51.427Z,5.20
2023-02-28T06:10:36.716Z,5.20
2023-02-28T06:13:22.117Z,5.20
2023-02-28T06:16:08.909Z,5.20
2023-02-28T06:18:56.959Z,5.20
2023-02-28T06:21:42.749Z,5.20
2023-02-28T06:24:32.193Z,5.10
2023-02-28T06:27:17.953Z,5.10
2023-02-28T06:30:03.559Z,5.10
2023-02-28T06:32:50.554Z,5.10
2023-02-28T06:35:36.177Z,5.10
2023-02-28T06:38:21.828Z,5.20
2023-02-28T06:41:07.851Z,5.20
2023-02-28T06:43:53.633Z,5.20
2023-02-28T06:46:40.039Z,5.20
2023-02-28T06:49:25.757Z,5.10
2023-02-28T06:52:11.475Z,5.10
2023-02-28T06:55:06.145Z,5.20
2023-02-28T06:57:51.734Z,5.20
2023-02-28T07:00:37.172Z,5.30
2023-02-28T07:03:22.718Z,5.30
2023-02-28T07:06:08.286Z,5.20
2023-02-28T07:08:54.548Z,5.30
2023-02-28T07:16:04.878Z,5.20
2023-02-28T07:18:50.902Z,5.30
2023-02-28T07:21:36.257Z,5.30
2023-02-28T07:24:21.913Z,5.30
2023-02-28T07:27:07.725Z,5.20
2023-02-28T07:29:54.233Z,5.20
2023-02-28T07:32:39.856Z,5.20
2023-02-28T07:35:25.447Z,5.10
2023-02-28T07:38:11.238Z,5.20
2023-02-28T07:40:56.725Z,5.10
2023-02-28T07:43:42.518Z,5.10
2023-02-28T07:46:30.555Z,5.20
2023-02-28T07:49:16.096Z,5.20
2023-02-28T07:52:02.251Z,5.20
2023-02-28T07:54:47.648Z,5.20
2023-02-28T07:57:36.280Z,5.30
2023-02-28T08:00:21.794Z,5.30
2023-02-28T08:03:07.276Z,5.30
2023-02-28T08:05:53.726Z,5.30
2023-02-28T08:08:39.663Z,5.30
2023-02-28T08:11:25.296Z,5.40
2023-02-28T08:14:11.889Z,5.40
2023-02-28T08:16:57.373Z,5.50
2023-02-28T08:19:42.702Z,5.50
2023-02-28T08:22:28.526Z,5.60
2023-02-28T08:25:14.232Z,5.60
2023-02-28T08:28:00.995Z,5.70
2023-02-28T08:30:46.251Z,5.80
2023-02-28T08:33:32.556Z,5.80
2023-02-28T08:36:20.594Z,5.80
2023-02-28T08:39:06.568Z,5.80
2023-02-28T08:42:02.169Z,5.90
2023-02-28T08:44:52.502Z,5.80
2023-02-28T08:47:38.351Z,5.80
2023-02-28T08:50:24.649Z,5.80
2023-02-28T08:53:09.951Z,5.90
2023-02-28T08:56:02.287Z,5.90
2023-02-28T08:58:48.693Z,5.80
2023-02-28T09:01:34.549Z,5.90
2023-02-28T09:04:20.712Z,6.00
2023-02-28T09:07:07.214Z,6.10
2023-02-28T09:09:55.828Z,6.20
2023-02-28T09:12:41.174Z,6.30
2023-02-28T09:15:26.685Z,6.40
2023-02-28T09:18:12.792Z,6.50
2023-02-28T09:20:59.121Z,6.50
2023-02-28T09:23:47.904Z,6.60
2023-02-28T09:26:39.053Z,6.60
2023-02-28T09:29:28.674Z,6.60
2023-02-28T09:32:15.809Z,6.70
2023-02-28T09:35:01.394Z,6.70
2023-02-28T09:37:46.843Z,6.60
2023-02-28T09:40:37.732Z,6.70
2023-02-28T09:43:24.832Z,6.60
2023-02-28T09:46:11.942Z,6.80
2023-02-28T09:48:58.247Z,6.90
2023-02-28T09:51:44.918Z,6.80
2023-02-28T09:54:32.031Z,6.80
2023-02-28T09:57:17.618Z,6.70
2023-02-28T10:00:35.426Z,6.80
2023-02-28T10:03:27.987Z,6.90
2023-02-28T10:06:18.099Z,6.90
2023-02-28T10:09:14.570Z,7.00
2023-02-28T10:12:05.658Z,7.00
2023-02-28T10:14:53.312Z,7.10
2023-02-28T10:17:55.032Z,7.20
2023-02-28T10:20:42.269Z,7.20
2023-02-28T10:23:36.111Z,7.30
2023-02-28T10:26:21.526Z,7.30
2023-02-28T10:29:09.173Z,7.30
2023-02-28T10:31:54.941Z,7.40
2023-02-28T10:34:40.482Z,7.40
2023-02-28T10:37:26.271Z,7.50
2023-02-28T10:40:23.877Z,7.60
2023-02-28T10:43:15.880Z,7.70
2023-02-28T10:46:04.464Z,7.60
2023-02-28T10:48:58.081Z,7.40
2023-02-28T10:51:44.982Z,7.30
2023-02-28T10:54:32.603Z,7.30
2023-02-28T10:57:21.126Z,7.50
2023-02-28T11:00:18.361Z,7.60
2023-02-28T11:03:22.249Z,7.70
2023-02-28T11:06:09.298Z,7.90
2023-02-28T11:08:56.224Z,8.00
2023-02-28T11:11:46.316Z,8.00
2023-02-28T11:14:35.304Z,8.10
2023-02-28T11:17:22.506Z,8.20
2023-02-28T11:20:15.090Z,8.30
2023-02-28T11:23:02.657Z,7.90
2023-02-28T11:25:50.685Z,7.90
2023-02-28T11:28:38.017Z,8.10
2023-02-28T11:31:25.457Z,8.30
2023-02-28T11:34:32.415Z,8.40
2023-02-28T11:37:19.534Z,8.40
2023-02-28T11:40:18.670Z,8.50
2023-02-28T11:43:21.168Z,8.20
2023-02-28T11:46:06.528Z,8.20
2023-02-28T11:49:03.465Z,8.10
2023-02-28T11:51:54.611Z,8.30
2023-02-28T11:54:58.487Z,8.30
2023-02-28T11:58:04.191Z,8.40
2023-02-28T12:00:51.456Z,8.50
2023-02-28T12:03:57.688Z,8.40
2023-02-28T12:06:52.717Z,8.50
2023-02-28T12:09:45.051Z,8.60
2023-02-28T12:12:48.188Z,8.70
2023-02-28T12:15:36.938Z,8.70
2023-02-28T12:18:28.735Z,8.70
2023-02-28T12:21:40.165Z,8.80
2023-02-28T12:24:35.164Z,8.80
2023-02-28T12:27:24.396Z,8.90
2023-02-28T12:30:12.039Z,9.00
2023-02-28T12:33:20.854Z,9.10
2023-02-28T12:36:11.139Z,9.00
2023-02-28T12:38:59.937Z,8.90
2023-02-28T12:41:48.780Z,8.80
2023-02-28T12:44:36.859Z,9.00
2023-02-28T12:47:22.676Z,8.90
2023-02-28T12:50:12.253Z,8.90
2023-02-28T12:53:16.069Z,9.10
2023-02-28T12:56:16.739Z,9.00
2023-02-28T12:59:06.029Z,9.00
2023-02-28T13:01:51.375Z,9.00
2023-02-28T13:04:55.734Z,8.80
2023-02-28T13:07:53.529Z,8.80
2023-02-28T13:10:51.157Z,9.00
2023-02-28T13:13:36.952Z,9.10
2023-02-28T13:16:22.573Z,9.20
2023-02-28T13:19:11.406Z,9.40
2023-02-28T13:21:57.499Z,9.30
2023-02-28T13:24:44.655Z,9.20
2023-02-28T13:27:40.034Z,9.20
2023-02-28T13:30:44.226Z,9.30
2023-02-28T13:33:29.833Z,9.30
2023-02-28T13:36:15.490Z,9.30
2023-02-28T13:39:04.980Z,9.40
2023-02-28T13:41:50.563Z,9.60
2023-02-28T13:44:56.236Z,9.50
2023-02-28T13:47:44.327Z,9.40
2023-02-28T13:50:29.550Z,9.60
2023-02-28T13:53:14.931Z,9.70
2023-02-28T13:56:19.553Z,9.80
2023-02-28T13:59:22.318Z,9.70
2023-02-28T14:02:26.871Z,9.80
2023-02-28T14:05:35.291Z,9.80
2023-02-28T14:08:24.004Z,9.70
2023-02-28T14:11:24.447Z,9.80
2023-02-28T14:14:11.034Z,9.90
2023-02-28T14:16:56.804Z,9.80
2023-02-28T14:19:50.981Z,9.80
2023-02-28T14:22:46.077Z,9.90
2023-02-28T14:26:11.545Z,9.80
2023-02-28T14:29:16.237Z,10.00
2023-02-28T14:32:22.530Z,9.90
2023-02-28T14:35:07.928Z,9.90
2023-02-28T14:37:57.927Z,10.00
2023-02-28T14:40:43.752Z,9.90
2023-02-28T14:43:30.697Z,9.90
2023-02-28T14:46:18.155Z,10.00
2023-02-28T14:49:05.410Z,10.00
2023-02-28T14:52:02.584Z,10.00
2023-02-28T14:54:52.572Z,9.80
2023-02-28T14:57:42.873Z,9.70
2023-02-28T15:00:30.276Z,9.60
2023-02-28T15:03:22.553Z,9.50
2023-02-28T15:06:15.956Z,9.40
2023-02-28T15:09:09.104Z,9.30
2023-02-28T15:11:56.004Z,9.20
2023-02-28T15:14:43.952Z,9.20
2023-02-28T15:17:29.585Z,9.20
2023-02-28T15:20:16.123Z,9.20
2023-02-28T15:23:03.200Z,9.10
2023-02-28T15:25:49.158Z,9.00
2023-02-28T15:28:34.722Z,9.00
2023-02-28T15:31:22.369Z,8.90
2023-02-28T15:34:13.920Z,8.90
2023-02-28T15:36:59.265Z,8.90
2023-02-28T15:39:45.359Z,8.80
2023-02-28T15:42:32.349Z,8.80
2023-02-28T15:45:28.792Z,8.80
2023-02-28T15:48:35.754Z,8.80
2023-02-28T15:51:24.143Z,8.80
2023-02-28T15:54:13.290Z,8.90
2023-02-28T15:57:02.291Z,8.80
2023-02-28T15:59:52.897Z,8.80
2023-02-28T16:02:39.050Z,8.90
2023-02-28T16:05:29.215Z,8.90
2023-02-28T16:08:16.150Z,8.90
2023-02-28T16:11:02.026Z,8.90
2023-02-28T16:13:47.757Z,8.90
2023-02-28T16:16:33.759Z,8.90
2023-02-28T16:19:19.551Z,8.90
2023-02-28T16:22:05.091Z,8.90
2023-02-28T16:24:50.498Z,8.80
2023-02-28T16:27:37.792Z,8.80
2023-02-28T16:30:27.564Z,8.80
2023-02-28T16:33:13.271Z,8.80
2023-02-28T16:35:58.694Z,8.60
2023-02-28T16:38:43.940Z,8.60
2023-02-28T16:41:30.034Z,8.50
2023-02-28T16:44:25.168Z,8.50
2023-02-28T16:47:11.819Z,8.40
2023-02-28T16:49:57.323Z,8.30
2023-02-28T16:52:42.877Z,8.30
2023-02-28T16:55:28.982Z,8.20
2023-02-28T16:58:15.204Z,8.20
2023-02-28T17:01:00.755Z,8.20
2023-02-28T17:03:46.773Z,8.20
2023-02-28T17:06:32.940Z,8.10
2023-02-28T17:09:20.997Z,8.10
2023-02-28T17:12:07.981Z,8.00
2023-02-28T17:14:53.288Z,7.90
2023-02-28T17:17:38.788Z,7.90
2023-02-28T17:20:24.299Z,7.90
2023-02-28T17:23:09.698Z,7.80
2023-02-28T17:25:57.702Z,7.80
2023-02-28T17:28:43.746Z,7.80
2023-02-28T17:31:30.178Z,7.70
2023-02-28T17:34:19.274Z,7.70
2023-02-28T17:37:04.940Z,7.70
2023-02-28T17:39:50.517Z,7.70
2023-02-28T17:42:35.850Z,7.70
2023-02-28T17:45:21.083Z,7.60
2023-02-28T17:48:07.332Z,7.60
2023-02-28T17:50:52.684Z,7.60
2023-02-28T17:53:38.285Z,7.50
2023-02-28T17:56:25.534Z,7.50
2023-02-28T17:59:11.494Z,7.50
2023-02-28T18:01:58.366Z,7.40
2023-02-28T18:04:44.048Z,7.30
2023-02-28T18:07:29.724Z,7.20
2023-02-28T18:10:20.145Z,7.20
2023-02-28T18:13:06.016Z,7.20
2023-02-28T18:15:51.586Z,7.10
2023-02-28T18:18:38.485Z,7.10
2023-02-28T18:21:24.357Z,7.10
2023-02-28T18:24:10.370Z,7.10
2023-02-28T18:26:58.017Z,7.10
2023-02-28T18:29:43.799Z,7.10
2023-02-28T18:32:29.726Z,7.10
2023-02-28T18:35:15.627Z,7.20
2023-02-28T18:38:22.629Z,7.20
2023-02-28T18:41:08.325Z,7.20
2023-02-28T18:43:54.219Z,7.20
2023-02-28T18:46:40.165Z,7.20
2023-02-28T18:49:25.736Z,7.20
2023-02-28T18:52:11.141Z,7.20
2023-02-28T18:54:56.404Z,7.20
2023-02-28T18:57:42.107Z,7.20
2023-02-28T19:00:27.666Z,7.20
2023-02-28T19:03:13.385Z,7.20
2023-02-28T19:05:59.810Z,7.20
2023-02-28T19:08:45.572Z,7.20
2023-02-28T19:11:31.721Z,7.20
2023-02-28T19:14:17.062Z,7.20
2023-02-28T19:17:02.402Z,7.20
2023-02-28T19:19:48.239Z,7.20
2023-02-28T19:22:33.642Z,7.20
2023-02-28T19:25:19.607Z,7.30
2023-02-28T19:28:05.311Z,7.20
2023-02-28T19:30:52.935Z,7.20
2023-02-28T19:33:38.610Z,7.20
2023-02-28T19:36:25.154Z,7.30
2023-02-28T19:39:10.776Z,7.20
2023-02-28T19:41:56.296Z,7.20
2023-02-28T19:44:46.468Z,7.30
2023-02-28T19:47:32.799Z,7.30
2023-02-28T19:50:18.517Z,7.30
2023-02-28T19:53:05.267Z,7.30
2023-02-28T19:55:53.175Z,7.30
2023-02-28T19:58:40.681Z,7.30
2023-02-28T20:01:30.712Z,7.20
2023-02-28T20:04:18.346Z,7.30
2023-02-28T20:07:04.251Z,7.30
2023-02-28T20:09:50.099Z,7.20
2023-02-28T20:12:37.219Z,7.20
2023-02-28T20:15:23.510Z,7.20
2023-02-28T20:18:09.468Z,7.20
2023-02-28T20:20:55.211Z,7.20
2023-02-28T20:23:41.527Z,7.20
2023-02-28T20:26:27.535Z,7.20
2023-02-28T20:29:13.780Z,7.20
2023-02-28T20:31:59.675Z,7.20
2023-02-28T20:34:45.196Z,7.20
2023-02-28T20:37:42.676Z,7.10
2023-02-28T20:40:28.777Z,7.10
2023-02-28T20:43:14.076Z,7.10
2023-02-28T20:46:03.462Z,7.00
2023-02-28T20:48:49.184Z,7.00
2023-02-28T20:51:37.232Z,7.00
2023-02-28T20:54:22.673Z,6.90
2023-02-28T20:57:08.400Z,6.80
2023-02-28T20:59:53.973Z,6.90
2023-02-28T21:02:39.894Z,6.80
2023-02-28T21:05:25.058Z,6.90
2023-02-28T21:08:10.800Z,6.90
2023-02-28T21:10:56.807Z,6.90
2023-02-28T21:13:43.201Z,6.90
2023-02-28T21:16:32.179Z,6.90
2023-02-28T21:19:18.711Z,6.90
2023-02-28T21:22:04.459Z,6.80
2023-02-28T21:24:50.156Z,6.80
2023-02-28T21:27:35.856Z,6.80
2023-02-28T21:30:21.927Z,6.80
2023-02-28T21:33:07.559Z,6.80
2023-02-28T21:35:59.591Z,6.70
2023-02-28T21:38:46.314Z,6.70
2023-02-28T21:41:31.809Z,6.80
2023-02-28T21:44:22.552Z,6.80
2023-02-28T21:47:08.117Z,6.80
2023-02-28T21:49:53.365Z,6.70
2023-02-28T21:52:39.191Z,6.80
2023-02-28T21:55:24.614Z,6.70
2023-02-28T21:58:10.188Z,6.70
2023-02-28T22:00:55.538Z,6.70
2023-02-28T22:03:41.601Z,6.70
2023-02-28T22:06:38.584Z,6.70
2023-02-28T22:09:25.277Z,6.70
2023-02-28T22:12:10.885Z,6.70
2023-02-28T22:14:56.534Z,6.60
2023-02-28T22:17:42.587Z,6.60
2023-02-28T22:20:28.234Z,6.60
2023-02-28T22:23:13.979Z,6.50
2023-02-28T22:26:03.296Z,6.50
2023-02-28T22:28:49.770Z,6.50
2023-02-28T22:31:36.320Z,6.40
2023-02-28T22:34:21.802Z,6.40
2023-02-28T22:37:07.789Z,6.40
2023-02-28T22:39:53.078Z,6.30
2023-02-28T22:42:38.859Z,6.30
2023-02-28T22:45:24.688Z,6.30
2023-02-28T22:48:11.107Z,6.20
2023-02-28T22:51:05.068Z,6.20
2023-02-28T22:53:51.485Z,6.10
2023-02-28T22:56:37.105Z,6.10
2023-02-28T22:59:22.787Z,6.10
2023-02-28T23:02:08.424Z,6.10
2023-02-28T23:04:57.389Z,6.50
2023-02-28T23:07:43.046Z,6.00
2023-02-28T23:10:28.581Z,5.90
2023-02-28T23:13:14.349Z,5.90
2023-02-28T23:15:59.675Z,5.90
2023-02-28T23:18:45.412Z,5.90
2023-02-28T23:21:30.969Z,6.00
2023-02-28T23:24:17.850Z,6.00
2023-02-28T23:27:04.811Z,5.90
2023-02-28T23:29:50.544Z,5.90
2023-02-28T23:32:37.404Z,5.90
2023-02-28T23:35:23.130Z,5.80
2023-02-28T23:38:08.569Z,5.80
2023-02-28T23:40:53.953Z,5.70
2023-02-28T23:43:40.710Z,5.70
2023-02-28T23:46:27.085Z,5.70
2023-02-28T23:49:12.705Z,5.70
2023-02-28T23:51:58.181Z,5.70
2023-02-28T23:54:44.117Z,5.70
2023-02-28T23:57:29.858Z,5.70
